createdAt,value
2023-03-10T00:00:46.545Z,96714.41
2023-03-10T00:03:13.138Z,96720.21
2023-03-10T00:05:40.336Z,96721.20
2023-03-10T00:08:07.350Z,96720.27
2023-03-10T00:10:34.110Z,96717.33
2023-03-10T00:13:00.598Z,96714.35
2023-03-10T00:15:27.118Z,96718.10
2023-03-10T00:17:53.642Z,96715.47
2023-03-10T00:20:20.297Z,96714.27
2023-03-10T00:22:46.846Z,96714.92
2023-03-10T00:25:13.980Z,96710.92
2023-03-10T00:27:40.454Z,96712.98
2023-03-10T00:30:08.231Z,96709.68
2023-03-10T00:32:35.497Z,96715.30
2023-03-10T00:35:02.649Z,96717.86
2023-03-10T00:37:29.069Z,96715.46
2023-03-10T00:39:55.750Z,96717.83
2023-03-10T00:42:22.343Z,96713.95
2023-03-10T00:44:48.776Z,96712.45
2023-03-10T00:47:15.508Z,96708.81
2023-03-10T00:49:41.974Z,96711.91
2023-03-10T00:52:08.501Z,96712.72
2023-03-10T00:54:35.048Z,96708.27
2023-03-10T00:57:01.794Z,96705.77
2023-03-10T00:59:29.622Z,96706.11
2023-03-10T01:01:59.565Z,96697.67
2023-03-10T01:04:26.404Z,96695.57
2023-03-10T01:06:53.014Z,96690.52
2023-03-10T01:09:19.561Z,96683.23
2023-03-10T01:11:46.217Z,96669.30
2023-03-10T01:14:15.260Z,96658.06
2023-03-10T01:16:41.977Z,96657.94
2023-03-10T01:19:08.500Z,96656.89
2023-03-10T01:21:37.984Z,96658.23
2023-03-10T01:24:06.900Z,96657.55
2023-03-10T01:26:33.490Z,96659.33
2023-03-10T01:28:59.984Z,96655.02
2023-03-10T01:31:26.573Z,96648.09
2023-03-10T01:33:53.239Z,96646.33
2023-03-10T01:36:23.073Z,96644.27
2023-03-10T01:38:49.526Z,96643.58
2023-03-10T01:41:17.630Z,96639.73
2023-03-10T01:43:53.832Z,96638.77
2023-03-10T01:46:39.152Z,96641.34
2023-03-10T01:49:14.092Z,96641.73
2023-03-10T01:51:44.227Z,96642.11
2023-03-10T01:54:17.131Z,96638.02
2023-03-10T01:56:45.207Z,96637.67
2023-03-10T01:59:12.668Z,96629.30
2023-03-10T02:01:39.299Z,96633.11
2023-03-10T02:04:19.849Z,96620.32
2023-03-10T02:06:48.505Z,96623.20
2023-03-10T02:09:16.871Z,96622.75
2023-03-10T02:11:45.054Z,96620.45
2023-03-10T02:14:11.805Z,96623.77
2023-03-10T02:16:38.379Z,96624.95
2023-03-10T02:19:09.825Z,96625.83
2023-03-10T02:21:48.336Z,96618.72
2023-03-10T02:24:49.699Z,96617.04
2023-03-10T02:27:29.852Z,96617.48
2023-03-10T02:30:04.429Z,96610.64
2023-03-10T02:32:34.668Z,96610.71
2023-03-10T02:35:01.583Z,96613.27
2023-03-10T02:37:31.885Z,96623.52
2023-03-10T02:39:59.091Z,96621.23
2023-03-10T02:42:32.785Z,96624.58
2023-03-10T02:44:59.644Z,96624.41
2023-03-10T02:47:26.137Z,96627.16
2023-03-10T02:49:52.681Z,96625.88
2023-03-10T02:52:29.564Z,96624.34
2023-03-10T02:54:56.012Z,96624.90
2023-03-10T02:57:26.119Z,96616.19
2023-03-10T02:59:52.590Z,96608.83
2023-03-10T03:02:19.178Z,96608.63
2023-03-10T03:04:45.734Z,96608.58
2023-03-10T03:07:12.271Z,96603.59
2023-03-10T03:09:38.737Z,96602.09
2023-03-10T03:12:05.564Z,96599.20
2023-03-10T03:14:32.044Z,96602.39
2023-03-10T03:16:58.606Z,96604.71
2023-03-10T03:19:25.209Z,96600.70
2023-03-10T03:21:51.690Z,96594.80
2023-03-10T03:24:19.263Z,96602.69
2023-03-10T03:26:45.768Z,96604.88
2023-03-10T03:29:12.339Z,96596.10
2023-03-10T03:31:38.931Z,96595.80
2023-03-10T03:34:06.542Z,96593.58
2023-03-10T03:36:33.448Z,96583.36
2023-03-10T03:38:59.913Z,96582.25
2023-03-10T03:41:26.401Z,96584.28
2023-03-10T03:43:52.932Z,96583.95
2023-03-10T03:46:19.473Z,96578.77
2023-03-10T03:48:46.126Z,96577.22
2023-03-10T03:51:12.672Z,96581.06
2023-03-10T03:53:39.112Z,96574.23
2023-03-10T03:56:05.964Z,96571.45
2023-03-10T03:58:32.746Z,96586.50
2023-03-10T04:00:59.455Z,96582.01
2023-03-10T04:03:26.027Z,96588.96
2023-03-10T04:05:52.750Z,96588.20
2023-03-10T04:08:19.214Z,96583.10
2023-03-10T04:10:53.410Z,96579.98
2023-03-10T04:13:20.366Z,96578.42
2023-03-10T04:15:47.335Z,96574.15
2023-03-10T04:18:14.223Z,96574.42
2023-03-10T04:20:40.715Z,96570.54
2023-03-10T04:23:07.133Z,96562.30
2023-03-10T04:25:33.724Z,96563.39
2023-03-10T04:28:00.359Z,96558.70
2023-03-10T04:30:26.993Z,96555.75
2023-03-10T04:32:53.471Z,96556.52
2023-03-10T04:35:20.204Z,96555.73
2023-03-10T04:37:46.750Z,96551.52
2023-03-10T04:40:13.911Z,96541.85
2023-03-10T04:42:41.096Z,96536.68
2023-03-10T04:45:08.751Z,96534.38
2023-03-10T04:47:35.316Z,96534.33
2023-03-10T04:50:02.153Z,96532.95
2023-03-10T04:52:28.592Z,96536.16
2023-03-10T04:54:55.118Z,96528.63
2023-03-10T04:57:21.820Z,96520.77
2023-03-10T04:59:48.420Z,96526.52
2023-03-10T05:02:15.007Z,96517.63
2023-03-10T05:04:41.971Z,96516.73
2023-03-10T05:07:08.521Z,96517.25
2023-03-10T05:09:36.357Z,96514.11
2023-03-10T05:12:03.330Z,96514.72
2023-03-10T05:14:29.965Z,96505.16
2023-03-10T05:16:56.395Z,96507.92
2023-03-10T05:19:23.364Z,96500.75
2023-03-10T05:21:49.913Z,96501.84
2023-03-10T05:24:16.455Z,96493.84
2023-03-10T05:26:43.271Z,96495.23
2023-03-10T05:29:09.823Z,96502.71
2023-03-10T05:31:36.585Z,96499.54
2023-03-10T05:34:03.155Z,96495.10
2023-03-10T05:36:29.702Z,96488.75
2023-03-10T05:38:56.360Z,96481.89
2023-03-10T05:41:22.907Z,96479.31
2023-03-10T05:43:49.466Z,96475.45
2023-03-10T05:46:16.019Z,96476.61
2023-03-10T05:48:42.546Z,96471.38
2023-03-10T05:51:11.803Z,96470.34
2023-03-10T05:53:39.445Z,96474.15
2023-03-10T05:56:11.383Z,96473.02
2023-03-10T05:58:38.982Z,96467.61
2023-03-10T06:01:06.348Z,96463.91
2023-03-10T06:03:33.672Z,96464.56
2023-03-10T06:06:00.787Z,96465.02
2023-03-10T06:08:27.604Z,96455.19
2023-03-10T06:10:55.108Z,96455.95
2023-03-10T06:13:21.746Z,96454.90
2023-03-10T06:15:57.440Z,96454.58
2023-03-10T06:18:25.092Z,96456.35
2023-03-10T06:20:52.037Z,96457.23
2023-03-10T06:23:18.593Z,96449.77
2023-03-10T06:25:45.258Z,96449.39
2023-03-10T06:28:12.323Z,96448.13
2023-03-10T06:30:38.875Z,96440.75
2023-03-10T06:33:05.585Z,96440.52
2023-03-10T06:35:32.561Z,96435.92
2023-03-10T06:37:59.244Z,96439.27
2023-03-10T06:40:26.108Z,96435.81
2023-03-10T06:42:52.591Z,96430.55
2023-03-10T06:45:19.372Z,96430.48
2023-03-10T06:47:46.005Z,96434.85
2023-03-10T06:50:13.350Z,96432.50
2023-03-10T06:52:39.902Z,96434.30
2023-03-10T06:55:07.152Z,96432.67
2023-03-10T06:57:34.131Z,96423.91
2023-03-10T07:00:00.681Z,96425.21
2023-03-10T07:02:27.320Z,96419.42
2023-03-10T07:04:53.984Z,96407.00
2023-03-10T07:07:21.329Z,96399.88
2023-03-10T07:09:47.794Z,96400.43
2023-03-10T07:12:14.357Z,96394.52
2023-03-10T07:14:40.862Z,96390.44
2023-03-10T07:17:07.504Z,96383.15
2023-03-10T07:19:34.171Z,96382.34
2023-03-10T07:22:00.709Z,96379.35
2023-03-10T07:24:27.263Z,96378.80
2023-03-10T07:26:54.126Z,96374.19
2023-03-10T07:29:20.654Z,96375.77
2023-03-10T07:31:47.307Z,96372.19
2023-03-10T07:34:13.846Z,96360.58
2023-03-10T07:36:40.502Z,96352.66
2023-03-10T07:39:07.038Z,96349.18
2023-03-10T07:41:33.465Z,96348.39
2023-03-10T07:44:00.136Z,96343.39
2023-03-10T07:46:26.725Z,96343.30
2023-03-10T07:48:53.660Z,96337.36
2023-03-10T07:51:20.717Z,96336.34
2023-03-10T07:53:47.239Z,96332.13
2023-03-10T07:56:14.698Z,96332.73
2023-03-10T07:58:41.492Z,96328.64
2023-03-10T08:01:13.708Z,96327.28
2023-03-10T08:03:40.826Z,96319.88
2023-03-10T08:06:16.621Z,96320.94
2023-03-10T08:08:43.192Z,96317.83
2023-03-10T08:11:09.864Z,96319.13
2023-03-10T08:13:37.856Z,96310.27
2023-03-10T08:16:05.302Z,96314.08
2023-03-10T08:18:32.589Z,96307.08
2023-03-10T08:20:59.272Z,96312.85
2023-03-10T08:23:26.159Z,96307.90
2023-03-10T08:25:52.860Z,96298.95
2023-03-10T08:28:19.333Z,96299.92
2023-03-10T08:31:01.229Z,96302.05
2023-03-10T08:33:29.916Z,96294.04
2023-03-10T08:36:03.946Z,96288.90
2023-03-10T08:38:30.461Z,96281.94
2023-03-10T08:40:57.050Z,96283.20
2023-03-10T08:43:23.765Z,96276.73
2023-03-10T08:45:50.315Z,96274.77
2023-03-10T08:48:16.898Z,96272.76
2023-03-10T08:50:43.334Z,96272.95
2023-03-10T08:53:09.881Z,96275.77
2023-03-10T08:55:36.422Z,96281.55
2023-03-10T08:58:03.076Z,96276.89
2023-03-10T09:00:29.612Z,96276.50
2023-03-10T09:02:56.311Z,96282.41
2023-03-10T09:05:23.065Z,96278.20
2023-03-10T09:07:49.537Z,96270.71
2023-03-10T09:10:16.714Z,96261.01
2023-03-10T09:12:43.569Z,96256.20
2023-03-10T09:15:10.883Z,96251.07
2023-03-10T09:17:40.237Z,96253.58
2023-03-10T09:20:07.499Z,96255.45
2023-03-10T09:22:34.040Z,96259.16
2023-03-10T09:25:00.886Z,96250.39
2023-03-10T09:27:27.498Z,96257.30
2023-03-10T09:29:53.936Z,96255.29
2023-03-10T09:32:20.604Z,96255.04
2023-03-10T09:34:47.701Z,96253.92
2023-03-10T09:37:14.198Z,96247.79
2023-03-10T09:39:40.866Z,96249.00
2023-03-10T09:42:37.291Z,96246.35
2023-03-10T09:45:12.704Z,96252.09
2023-03-10T09:47:53.103Z,96245.73
2023-03-10T09:50:25.603Z,96249.91
2023-03-10T09:53:37.530Z,96250.21
2023-03-10T09:56:11.752Z,96247.01
2023-03-10T09:58:45.673Z,96246.63
2023-03-10T10:01:21.633Z,96241.70
2023-03-10T10:04:00.241Z,96236.86
2023-03-10T10:06:28.956Z,96231.81
2023-03-10T10:09:05.033Z,96229.91
2023-03-10T10:11:34.033Z,96225.59
2023-03-10T10:14:22.320Z,96215.48
2023-03-10T10:17:01.450Z,96206.02
2023-03-10T10:19:28.852Z,96196.17
2023-03-10T10:22:02.378Z,96204.70
2023-03-10T10:24:29.300Z,96202.69
2023-03-10T10:26:56.349Z,96203.83
2023-03-10T10:29:33.682Z,96201.50
2023-03-10T10:32:05.440Z,96199.09
2023-03-10T10:34:32.958Z,96190.73
2023-03-10T10:37:00.188Z,96188.13
2023-03-10T10:39:35.547Z,96185.88
2023-03-10T10:42:21.124Z,96181.95
2023-03-10T10:44:47.633Z,96177.96
2023-03-10T10:47:34.711Z,96176.84
2023-03-10T10:50:20.420Z,96174.39
2023-03-10T10:52:48.283Z,96172.98
2023-03-10T10:55:29.851Z,96173.16
2023-03-10T10:58:01.673Z,96162.91
2023-03-10T11:00:37.002Z,96161.92
2023-03-10T11:03:33.098Z,96160.79
2023-03-10T11:06:00.715Z,96148.98
2023-03-10T11:08:27.191Z,96148.05
2023-03-10T11:11:02.921Z,96141.95
2023-03-10T11:13:39.881Z,96135.30
2023-03-10T11:16:26.462Z,96127.84
2023-03-10T11:19:01.267Z,96118.87
2023-03-10T11:21:34.920Z,96122.85
2023-03-10T11:24:46.664Z,96114.77
2023-03-10T11:27:18.579Z,96122.27
2023-03-10T11:30:12.283Z,96112.00
2023-03-10T11:32:51.167Z,96105.81
2023-03-10T11:35:33.569Z,96112.09
2023-03-10T11:38:04.748Z,96101.52
2023-03-10T11:40:43.171Z,96084.11
2023-03-10T11:43:23.777Z,96084.40
2023-03-10T11:45:52.758Z,96078.46
2023-03-10T11:48:44.333Z,96075.83
2023-03-10T11:51:22.387Z,96064.81
2023-03-10T11:53:58.050Z,96072.07
2023-03-10T11:56:27.012Z,96066.46
2023-03-10T11:59:15.306Z,96061.63
2023-03-10T12:02:19.431Z,96054.89
2023-03-10T12:04:55.266Z,96052.64
2023-03-10T12:07:52.847Z,96053.60
2023-03-10T12:10:21.422Z,96043.86
2023-03-10T12:12:49.943Z,96040.86
2023-03-10T12:15:33.016Z,96036.39
2023-03-10T12:17:59.767Z,96045.39
2023-03-10T12:20:31.216Z,96043.58
2023-03-10T12:23:26.689Z,96032.17
2023-03-10T12:25:53.266Z,96036.95
2023-03-10T12:28:19.729Z,96025.14
2023-03-10T12:30:50.756Z,96035.77
2023-03-10T12:33:32.316Z,96030.42
2023-03-10T12:36:33.169Z,96027.63
2023-03-10T12:39:27.610Z,96020.33
2023-03-10T12:42:26.279Z,96017.14
2023-03-10T12:45:22.164Z,96020.05
2023-03-10T12:48:03.350Z,96015.86
2023-03-10T12:50:49.758Z,96020.70
2023-03-10T12:53:28.596Z,96016.89
2023-03-10T12:56:19.464Z,96012.88
2023-03-10T12:58:50.616Z,96000.09
2023-03-10T13:01:22.753Z,96016.36
2023-03-10T13:03:53.247Z,96003.45
2023-03-10T13:06:29.550Z,96008.31
2023-03-10T13:09:18.814Z,96000.10
2023-03-10T13:11:53.298Z,95998.80
2023-03-10T13:14:24.535Z,95997.15
2023-03-10T13:16:59.584Z,95990.64
2023-03-10T13:19:29.131Z,95998.32
2023-03-10T13:21:56.143Z,96001.00
2023-03-10T13:24:25.772Z,96000.52
2023-03-10T13:27:23.946Z,95997.43
2023-03-10T13:29:55.817Z,95990.95
2023-03-10T13:32:22.805Z,95992.20
2023-03-10T13:34:49.480Z,95992.95
2023-03-10T13:37:16.295Z,95992.38
2023-03-10T13:39:44.812Z,95993.67
2023-03-10T13:42:24.067Z,95988.65
2023-03-10T13:44:55.099Z,95992.70
2023-03-10T13:47:26.398Z,95996.71
2023-03-10T13:50:02.193Z,95992.98
2023-03-10T13:52:30.714Z,95995.02
2023-03-10T13:55:16.940Z,95989.39
2023-03-10T13:57:45.873Z,95981.36
2023-03-10T14:00:19.431Z,95992.69
2023-03-10T14:02:48.597Z,95986.69
2023-03-10T14:05:44.498Z,95988.08
2023-03-10T14:08:24.442Z,95983.88
2023-03-10T14:10:51.816Z,95986.28
2023-03-10T14:13:45.112Z,95987.53
2023-03-10T14:16:11.744Z,95987.64
2023-03-10T14:18:40.517Z,95982.16
2023-03-10T14:21:24.061Z,95986.98
2023-03-10T14:23:50.483Z,95989.33
2023-03-10T14:26:17.643Z,95994.60
2023-03-10T14:28:44.231Z,95993.30
2023-03-10T14:31:24.460Z,95985.42
2023-03-10T14:33:51.455Z,95990.77
2023-03-10T14:36:17.918Z,95989.66
2023-03-10T14:38:44.589Z,95989.90
2023-03-10T14:41:14.002Z,95989.27
2023-03-10T14:43:41.909Z,95990.21
2023-03-10T14:46:11.806Z,95982.41
2023-03-10T14:48:39.963Z,95982.09
2023-03-10T14:51:06.667Z,95985.73
2023-03-10T14:53:33.847Z,95979.41
2023-03-10T14:56:02.162Z,95975.45
2023-03-10T14:58:33.410Z,95974.66
2023-03-10T15:01:00.771Z,95975.41
2023-03-10T15:03:27.655Z,95969.90
2023-03-10T15:05:54.111Z,95974.48
2023-03-10T15:08:20.693Z,95973.75
2023-03-10T15:10:50.130Z,95968.27
2023-03-10T15:13:18.676Z,95960.12
2023-03-10T15:15:47.361Z,95955.39
2023-03-10T15:18:17.104Z,95950.28
2023-03-10T15:20:43.940Z,95945.68
2023-03-10T15:23:13.723Z,95945.33
2023-03-10T15:25:43.716Z,95947.94
2023-03-10T15:28:11.868Z,95949.70
2023-03-10T15:30:38.309Z,95947.99
2023-03-10T15:33:04.755Z,95951.48
2023-03-10T15:35:31.805Z,95951.63
2023-03-10T15:37:59.022Z,95957.68
2023-03-10T15:40:29.348Z,95956.55
2023-03-10T15:42:56.263Z,95956.21
2023-03-10T15:45:24.101Z,95959.71
2023-03-10T15:47:51.248Z,95958.79
2023-03-10T15:50:19.880Z,95957.39
2023-03-10T15:52:58.017Z,95958.76
2023-03-10T15:55:25.639Z,95961.33
2023-03-10T15:57:52.823Z,95966.14
2023-03-10T16:00:22.436Z,95966.51
2023-03-10T16:02:50.196Z,95966.73
2023-03-10T16:05:18.106Z,95970.95
2023-03-10T16:07:44.822Z,95971.29
2023-03-10T16:10:13.594Z,95971.66
2023-03-10T16:12:40.565Z,95966.92
2023-03-10T16:15:08.283Z,95976.56
2023-03-10T16:17:34.868Z,95974.96
2023-03-10T16:20:01.356Z,95975.72
2023-03-10T16:22:28.246Z,95975.98
2023-03-10T16:24:54.787Z,95968.86
2023-03-10T16:27:21.210Z,95964.34
2023-03-10T16:29:47.814Z,95965.66
2023-03-10T16:32:14.555Z,95961.30
2023-03-10T16:34:41.065Z,95961.23
2023-03-10T16:37:07.555Z,95962.33
2023-03-10T16:39:34.153Z,95966.95
2023-03-10T16:42:00.809Z,95966.70
2023-03-10T16:44:27.356Z,95965.80
2023-03-10T16:46:53.932Z,95963.66
2023-03-10T16:49:20.429Z,95967.30
2023-03-10T16:51:48.340Z,95964.67
2023-03-10T16:54:20.811Z,95967.52
2023-03-10T16:56:52.455Z,95970.63
2023-03-10T16:59:21.764Z,95973.48
2023-03-10T17:01:49.306Z,95976.41
2023-03-10T17:04:16.080Z,95972.46
2023-03-10T17:06:42.749Z,95966.70
2023-03-10T17:09:11.194Z,95964.41
2023-03-10T17:11:45.123Z,95965.29
2023-03-10T17:14:14.459Z,95967.49
2023-03-10T17:16:42.301Z,95964.83
2023-03-10T17:19:13.387Z,95966.37
2023-03-10T17:21:43.443Z,95963.70
2023-03-10T17:24:10.733Z,95969.54
2023-03-10T17:26:37.631Z,95971.55
2023-03-10T17:29:04.834Z,95964.73
2023-03-10T17:31:31.426Z,95960.08
2023-03-10T17:34:00.946Z,95956.24
2023-03-10T17:36:28.371Z,95953.88
2023-03-10T17:38:57.162Z,95954.39
2023-03-10T17:41:24.796Z,95954.77
2023-03-10T17:43:53.112Z,95948.15
2023-03-10T17:46:27.631Z,95949.42
2023-03-10T17:48:54.705Z,95950.05
2023-03-10T17:51:24.671Z,95947.60
2023-03-10T17:53:51.607Z,95956.56
2023-03-10T17:56:18.645Z,95956.23
2023-03-10T17:58:45.173Z,95959.89
2023-03-10T18:01:20.390Z,95969.66
2023-03-10T18:03:48.464Z,95955.40
2023-03-10T18:06:21.702Z,95959.42
2023-03-10T18:08:49.687Z,95974.51
2023-03-10T18:11:16.835Z,95978.77
2023-03-10T18:13:44.196Z,95977.08
2023-03-10T18:16:25.628Z,95981.68
2023-03-10T18:18:52.642Z,95983.66
2023-03-10T18:21:19.975Z,95985.78
2023-03-10T18:23:47.106Z,95986.48
2023-03-10T18:26:17.609Z,95981.92
2023-03-10T18:28:44.706Z,95985.55
2023-03-10T18:31:20.474Z,95993.87
2023-03-10T18:33:47.898Z,95995.44
2023-03-10T18:36:15.816Z,95984.71
2023-03-10T18:38:43.797Z,95994.83
2023-03-10T18:41:10.944Z,95995.92
2023-03-10T18:43:37.607Z,95985.60
2023-03-10T18:46:04.625Z,95979.00
2023-03-10T18:48:31.261Z,95979.81
2023-03-10T18:50:59.544Z,95981.67
2023-03-10T18:53:27.469Z,95978.87
2023-03-10T18:55:54.623Z,95985.05
2023-03-10T18:58:22.080Z,95988.46
2023-03-10T19:00:50.012Z,95991.69
2023-03-10T19:03:17.891Z,95991.16
2023-03-10T19:05:44.645Z,95989.34
2023-03-10T19:08:11.842Z,95985.95
2023-03-10T19:10:39.308Z,95982.66
2023-03-10T19:13:06.460Z,95974.23
2023-03-10T19:15:33.470Z,95973.05
2023-03-10T19:17:59.973Z,95976.98
2023-03-10T19:20:26.659Z,95974.95
2023-03-10T19:22:53.320Z,95972.60
2023-03-10T19:25:20.471Z,95970.02
2023-03-10T19:27:47.249Z,95970.77
2023-03-10T19:30:16.177Z,95980.32
2023-03-10T19:32:43.900Z,95992.34
2023-03-10T19:35:11.559Z,96000.02
2023-03-10T19:37:39.599Z,96000.70
2023-03-10T19:40:07.422Z,96003.02
2023-03-10T19:42:35.689Z,96007.21
2023-03-10T19:45:02.547Z,96012.34
2023-03-10T19:47:32.302Z,96003.55
2023-03-10T19:49:58.908Z,95999.66
2023-03-10T19:52:25.681Z,95996.40
2023-03-10T19:54:52.311Z,95994.23
2023-03-10T19:57:18.856Z,95986.50
2023-03-10T19:59:45.905Z,95982.06
2023-03-10T20:02:14.851Z,95986.36
2023-03-10T20:04:41.850Z,95985.07
2023-03-10T20:07:08.932Z,95985.23
2023-03-10T20:09:35.910Z,95984.34
2023-03-10T20:12:02.946Z,95981.47
2023-03-10T20:14:29.979Z,95982.46
2023-03-10T20:16:56.426Z,95974.89
2023-03-10T20:19:22.896Z,95969.33
2023-03-10T20:21:50.270Z,95961.23
2023-03-10T20:24:18.434Z,95947.08
2023-03-10T20:26:44.980Z,95942.05
2023-03-10T20:29:12.427Z,95944.36
2023-03-10T20:31:38.949Z,95944.46
2023-03-10T20:34:06.643Z,95939.02
2023-03-10T20:36:33.924Z,95939.65
2023-03-10T20:39:00.692Z,95935.45
2023-03-10T20:41:27.319Z,95933.81
2023-03-10T20:43:53.832Z,95932.05
2023-03-10T20:46:20.479Z,95924.92
2023-03-10T20:48:49.978Z,95913.49
2023-03-10T20:51:18.691Z,95905.34
2023-03-10T20:53:45.798Z,95904.61
2023-03-10T20:56:12.268Z,95907.61
2023-03-10T20:58:38.818Z,95905.57
2023-03-10T21:01:05.586Z,95896.86
2023-03-10T21:03:32.493Z,95893.75
2023-03-10T21:05:58.962Z,95880.86
2023-03-10T21:08:25.377Z,95870.59
2023-03-10T21:10:51.787Z,95868.45
2023-03-10T21:13:18.371Z,95867.45
2023-03-10T21:15:45.220Z,95873.14
2023-03-10T21:18:11.614Z,95874.32
2023-03-10T21:20:38.211Z,95874.39
2023-03-10T21:23:04.850Z,95868.16
2023-03-10T21:25:31.288Z,95865.98
2023-03-10T21:27:58.044Z,95862.61
2023-03-10T21:30:27.106Z,95857.64
2023-03-10T21:32:53.617Z,95847.89
2023-03-10T21:35:20.140Z,95841.67
2023-03-10T21:37:46.701Z,95840.47
2023-03-10T21:40:15.309Z,95838.23
2023-03-10T21:42:42.279Z,95834.72
2023-03-10T21:45:11.311Z,95829.30
2023-03-10T21:47:37.772Z,95827.78
2023-03-10T21:50:04.535Z,95822.79
2023-03-10T21:52:31.085Z,95819.29
2023-03-10T21:54:57.737Z,95810.38
2023-03-10T21:57:24.385Z,95807.15
2023-03-10T21:59:50.793Z,95800.05
2023-03-10T22:02:28.439Z,95798.13
2023-03-10T22:04:55.631Z,95794.40
2023-03-10T22:07:22.570Z,95796.67
2023-03-10T22:09:49.192Z,95797.05
2023-03-10T22:12:15.857Z,95791.44
2023-03-10T22:14:42.912Z,95785.17
2023-03-10T22:17:09.550Z,95778.98
2023-03-10T22:19:36.075Z,95777.91
2023-03-10T22:22:02.526Z,95778.91
2023-03-10T22:24:28.989Z,95774.40
2023-03-10T22:26:55.360Z,95767.98
2023-03-10T22:29:21.744Z,95768.71
2023-03-10T22:31:51.579Z,95768.43
2023-03-10T22:34:17.982Z,95769.39
2023-03-10T22:36:44.657Z,95762.08
2023-03-10T22:39:11.202Z,95760.21
2023-03-10T22:41:38.786Z,95760.92
2023-03-10T22:44:05.733Z,95764.06
2023-03-10T22:46:32.338Z,95757.41
2023-03-10T22:48:59.124Z,95756.67
2023-03-10T22:51:25.978Z,95757.79
2023-03-10T22:53:52.431Z,95759.44
2023-03-10T22:56:19.161Z,95758.65
2023-03-10T22:58:45.753Z,95753.20
2023-03-10T23:01:12.228Z,95748.56
2023-03-10T23:03:38.964Z,95748.04
2023-03-10T23:06:06.242Z,95744.64
2023-03-10T23:08:33.659Z,95745.02
2023-03-10T23:11:00.178Z,95741.98
2023-03-10T23:13:26.716Z,95744.55
2023-03-10T23:15:53.482Z,95748.54
2023-03-10T23:18:19.958Z,95745.98
2023-03-10T23:20:47.792Z,95749.11
2023-03-10T23:23:15.876Z,95743.35
2023-03-10T23:25:45.614Z,95740.98
2023-03-10T23:28:12.027Z,95740.52
2023-03-10T23:30:41.097Z,95740.69
2023-03-10T23:33:08.270Z,95740.96
2023-03-10T23:35:35.529Z,95737.31
2023-03-10T23:38:03.951Z,95736.77
2023-03-10T23:40:32.240Z,95743.84
2023-03-10T23:43:00.478Z,95746.11
2023-03-10T23:45:29.737Z,95747.11
2023-03-10T23:47:57.416Z,95745.11
2023-03-10T23:50:30.709Z,95740.95
2023-03-10T23:52:58.156Z,95741.23
2023-03-10T23:55:29.193Z,95740.11
2023-03-10T23:57:56.100Z,95740.83
